sensor_id;sensor_type;location;lat;lon;timestamp;pressure;altitude;pressure_sealevel;temperature;humidity
73551;BME280;61816;53.582;10.096;2023-02-19T00:00:26;54660.16;;;-144.73;100.00
73551;BME280;61816;53.582;10.096;2023-02-19T00:02:52;54629.38;;;-144.73;100.00
73551;BME280;61816;53.582;10.096;2023-02-19T00:05:17;54629.38;;;-144.73;100.00
73551;BME280;61816;53.582;10.096;2023-02-19T00:07:42;54654.00;;;-144.73;100.00
73551;BME280;61816;53.582;10.096;2023-02-19T00:10:08;54621.16;;;-144.73;100.00
73551;BME280;61816;53.582;10.096;2023-02-19T00:12:33;54662.22;;;-144.73;100.00
73551;BME280;61816;53.582;10.096;2023-02-19T00:14:59;54625.28;;;-144.73;100.00
73551;BME280;61816;53.582;10.096;2023-02-19T00:17:24;54641.69;;;-144.73;100.00
73551;BME280;61816;53.582;10.096;2023-02-19T00:19:49;54625.28;;;-144.73;100.00
73551;BME280;61816;53.582;10.096;2023-02-19T00:22:15;54617.06;;;-144.73;100.00
73551;BME280;61816;53.582;10.096;2023-02-19T00:24:40;54600.63;;;-144.73;100.00
73551;BME280;61816;53.582;10.096;2023-02-19T00:27:06;54633.47;;;-144.73;100.00
73551;BME280;61816;53.582;10.096;2023-02-19T00:29:31;54629.38;;;-144.73;100.00
73551;BME280;61816;53.582;10.096;2023-02-19T00:31:56;54645.78;;;-144.73;100.00
73551;BME280;61816;53.582;10.096;2023-02-19T00:34:22;54645.78;;;-144.73;100.00
73551;BME280;61816;53.582;10.096;2023-02-19T00:36:47;54637.59;;;-144.73;100.00
73551;BME280;61816;53.582;10.096;2023-02-19T00:39:15;54625.28;;;-144.73;100.00
73551;BME280;61816;53.582;10.096;2023-02-19T00:41:43;54635.53;;;-144.73;100.00
73551;BME280;61816;53.582;10.096;2023-02-19T00:44:10;54631.44;;;-144.73;100.00
73551;BME280;61816;53.582;10.096;2023-02-19T00:46:42;54604.75;;;-144.73;100.00
73551;BME280;61816;53.582;10.096;2023-02-19T00:49:09;54627.31;;;-144.73;100.00
73551;BME280;61816;53.582;10.096;2023-02-19T00:51:37;54670.44;;;-144.73;100.00
73551;BME280;61816;53.582;10.096;2023-02-19T00:54:04;54625.28;;;-144.73;100.00
73551;BME280;61816;53.582;10.096;2023-02-19T00:56:30;54621.16;;;-144.73;100.00
73551;BME280;61816;53.582;10.096;2023-02-19T00:58:55;54629.38;;;-144.73;100.00
73551;BME280;61816;53.582;10.096;2023-02-19T01:01:21;54633.47;;;-144.73;100.00
73551;BME280;61816;53.582;10.096;2023-02-19T01:03:47;54612.97;;;-144.73;100.00
73551;BME280;61816;53.582;10.096;2023-02-19T01:06:14;54670.44;;;-144.73;100.00
73551;BME280;61816;53.582;10.096;2023-02-19T01:08:40;54631.44;;;-144.73;100.00
73551;BME280;61816;53.582;10.096;2023-02-19T01:11:07;54625.28;;;-144.73;100.00
73551;BME280;61816;53.582;10.096;2023-02-19T01:13:37;54582.16;;;-144.73;100.00
73551;BME280;61816;53.582;10.096;2023-02-19T01:16:09;54690.97;;;-144.73;100.00
73551;BME280;61816;53.582;10.096;2023-02-19T01:18:36;54619.13;;;-144.73;100.00
73551;BME280;61816;53.582;10.096;2023-02-19T01:21:11;54645.78;;;-144.73;100.00
73551;BME280;61816;53.582;10.096;2023-02-19T01:23:37;54617.06;;;-144.73;100.00
73551;BME280;61816;53.582;10.096;2023-02-19T01:26:04;54596.53;;;-144.73;100.00
73551;BME280;61816;53.582;10.096;2023-02-19T01:28:30;54654.00;;;-144.73;100.00
73551;BME280;61816;53.582;10.096;2023-02-19T01:31:00;54658.13;;;-144.73;100.00
73551;BME280;61816;53.582;10.096;2023-02-19T01:33:25;54645.78;;;-144.73;100.00
73551;BME280;61816;53.582;10.096;2023-02-19T01:35:51;54637.59;;;-144.73;100.00
73551;BME280;61816;53.582;10.096;2023-02-19T01:38:16;54604.75;;;-144.73;100.00
73551;BME280;61816;53.582;10.096;2023-02-19T01:40:41;54604.75;;;-144.73;100.00
73551;BME280;61816;53.582;10.096;2023-02-19T01:43:14;54612.97;;;-144.73;100.00
73551;BME280;61816;53.582;10.096;2023-02-19T01:45:44;54641.69;;;-144.73;100.00
73551;BME280;61816;53.582;10.096;2023-02-19T01:48:17;54608.84;;;-144.73;100.00
73551;BME280;61816;53.582;10.096;2023-02-19T01:50:52;54649.91;;;-144.73;100.00
73551;BME280;61816;53.582;10.096;2023-02-19T01:53:21;54621.16;;;-144.73;100.00
73551;BME280;61816;53.582;10.096;2023-02-19T01:55:51;54637.59;;;-144.73;100.00
73551;BME280;61816;53.582;10.096;2023-02-19T01:58:17;54645.78;;;-144.73;100.00
73551;BME280;61816;53.582;10.096;2023-02-19T02:00:42;54629.38;;;-144.73;100.00
73551;BME280;61816;53.582;10.096;2023-02-19T02:03:08;54604.75;;;-144.73;100.00
73551;BME280;61816;53.582;10.096;2023-02-19T02:06:04;54604.75;;;-144.73;100.00
73551;BME280;61816;53.582;10.096;2023-02-19T02:08:32;54639.63;;;-144.73;100.00
73551;BME280;61816;53.582;10.096;2023-02-19T02:11:17;54641.69;;;-144.73;100.00
73551;BME280;61816;53.582;10.096;2023-02-19T02:13:43;54662.22;;;-144.73;100.00
73551;BME280;61816;53.582;10.096;2023-02-19T02:16:35;54643.75;;;-144.73;100.00
73551;BME280;61816;53.582;10.096;2023-02-19T02:24:38;54637.59;;;-144.73;100.00
73551;BME280;61816;53.582;10.096;2023-02-19T02:27:40;54621.16;;;-144.73;100.00
73551;BME280;61816;53.582;10.096;2023-02-19T02:32:58;54660.16;;;-144.73;100.00
73551;BME280;61816;53.582;10.096;2023-02-19T02:35:29;54625.28;;;-144.73;100.00
73551;BME280;61816;53.582;10.096;2023-02-19T02:38:01;54637.59;;;-144.73;100.00
73551;BME280;61816;53.582;10.096;2023-02-19T02:40:27;54637.59;;;-144.73;100.00
73551;BME280;61816;53.582;10.096;2023-02-19T02:42:56;54629.38;;;-144.73;100.00
73551;BME280;61816;53.582;10.096;2023-02-19T02:45:24;54617.06;;;-144.73;100.00
73551;BME280;61816;53.582;10.096;2023-02-19T02:48:03;54633.47;;;-144.73;100.00
73551;BME280;61816;53.582;10.096;2023-02-19T02:50:37;54645.78;;;-144.73;100.00
73551;BME280;61816;53.582;10.096;2023-02-19T02:53:10;54670.44;;;-144.73;100.00
73551;BME280;61816;53.582;10.096;2023-02-19T02:55:55;54621.16;;;-144.73;100.00
73551;BME280;61816;53.582;10.096;2023-02-19T02:58:23;54660.16;;;-144.73;100.00
73551;BME280;61816;53.582;10.096;2023-02-19T03:00:53;54627.31;;;-144.73;100.00
73551;BME280;61816;53.582;10.096;2023-02-19T03:03:41;54612.97;;;-144.73;100.00
73551;BME280;61816;53.582;10.096;2023-02-19T03:06:10;54637.59;;;-144.73;100.00
73551;BME280;61816;53.582;10.096;2023-02-19T03:08:52;54604.75;;;-144.73;100.00
73551;BME280;61816;53.582;10.096;2023-02-19T03:11:19;54633.47;;;-144.73;100.00
73551;BME280;61816;53.582;10.096;2023-02-19T03:14:11;54654.00;;;-144.73;100.00
73551;BME280;61816;53.582;10.096;2023-02-19T03:17:04;54645.78;;;-144.73;100.00
73551;BME280;61816;53.582;10.096;2023-02-19T03:19:55;54617.06;;;-144.73;100.00
73551;BME280;61816;53.582;10.096;2023-02-19T03:22:24;54641.69;;;-144.73;100.00
73551;BME280;61816;53.582;10.096;2023-02-19T03:36:11;54621.16;;;-144.73;100.00
73551;BME280;61816;53.582;10.096;2023-02-19T03:38:45;54682.75;;;-144.73;100.00
73551;BME280;61816;53.582;10.096;2023-02-19T03:41:22;54606.78;;;-144.73;100.00
73551;BME280;61816;53.582;10.096;2023-02-19T03:44:11;54649.91;;;-144.73;100.00
73551;BME280;61816;53.582;10.096;2023-02-19T03:47:34;54619.13;;;-144.73;100.00
73551;BME280;61816;53.582;10.096;2023-02-19T03:50:02;54600.63;;;-144.73;100.00
73551;BME280;61816;53.582;10.096;2023-02-19T03:55:22;54619.13;;;-144.73;100.00
73551;BME280;61816;53.582;10.096;2023-02-19T04:01:12;54621.16;;;-144.73;100.00
73551;BME280;61816;53.582;10.096;2023-02-19T04:03:45;54617.06;;;-144.73;100.00
73551;BME280;61816;53.582;10.096;2023-02-19T04:06:16;54612.97;;;-144.73;100.00
73551;BME280;61816;53.582;10.096;2023-02-19T04:08:47;54598.59;;;-144.73;100.00
73551;BME280;61816;53.582;10.096;2023-02-19T04:11:14;54660.16;;;-144.73;100.00
73551;BME280;61816;53.582;10.096;2023-02-19T04:13:44;54608.84;;;-144.73;100.00
73551;BME280;61816;53.582;10.096;2023-02-19T04:16:16;54637.59;;;-144.73;100.00
73551;BME280;61816;53.582;10.096;2023-02-19T04:18:47;54567.81;;;-144.73;100.00
73551;BME280;61816;53.582;10.096;2023-02-19T04:21:14;54615.00;;;-144.73;100.00
73551;BME280;61816;53.582;10.096;2023-02-19T04:23:42;54617.06;;;-144.73;100.00
73551;BME280;61816;53.582;10.096;2023-02-19T04:26:10;54608.84;;;-144.73;100.00
73551;BME280;61816;53.582;10.096;2023-02-19T04:28:36;54641.69;;;-144.73;100.00
73551;BME280;61816;53.582;10.096;2023-02-19T04:31:01;54612.97;;;-144.73;100.00
73551;BME280;61816;53.582;10.096;2023-02-19T04:33:27;54639.63;;;-144.73;100.00
73551;BME280;61816;53.582;10.096;2023-02-19T04:35:52;54629.38;;;-144.73;100.00
73551;BME280;61816;53.582;10.096;2023-02-19T04:38:17;54651.97;;;-144.73;100.00
73551;BME280;61816;53.582;10.096;2023-02-19T04:40:43;54629.38;;;-144.73;100.00
73551;BME280;61816;53.582;10.096;2023-02-19T04:43:08;54621.16;;;-144.73;100.00
73551;BME280;61816;53.582;10.096;2023-02-19T04:45:36;54608.84;;;-144.73;100.00
73551;BME280;61816;53.582;10.096;2023-02-19T04:48:01;54635.53;;;-144.73;100.00
73551;BME280;61816;53.582;10.096;2023-02-19T04:50:27;54598.59;;;-144.73;100.00
73551;BME280;61816;53.582;10.096;2023-02-19T04:52:52;54629.38;;;-144.73;100.00
73551;BME280;61816;53.582;10.096;2023-02-19T04:55:17;54623.22;;;-144.73;100.00
73551;BME280;61816;53.582;10.096;2023-02-19T04:57:43;54621.16;;;-144.73;100.00
73551;BME280;61816;53.582;10.096;2023-02-19T05:00:08;54645.78;;;-144.73;100.00
73551;BME280;61816;53.582;10.096;2023-02-19T05:02:34;54619.13;;;-144.73;100.00
73551;BME280;61816;53.582;10.096;2023-02-19T05:04:59;54608.84;;;-144.73;100.00
73551;BME280;61816;53.582;10.096;2023-02-19T05:07:25;54641.69;;;-144.73;100.00
73551;BME280;61816;53.582;10.096;2023-02-19T05:09:50;54633.47;;;-144.73;100.00
73551;BME280;61816;53.582;10.096;2023-02-19T05:12:16;54627.31;;;-144.73;100.00
73551;BME280;61816;53.582;10.096;2023-02-19T05:14:41;54672.47;;;-144.73;100.00
73551;BME280;61816;53.582;10.096;2023-02-19T05:17:06;54637.59;;;-144.73;100.00
73551;BME280;61816;53.582;10.096;2023-02-19T05:19:32;54612.97;;;-144.73;100.00
73551;BME280;61816;53.582;10.096;2023-02-19T05:21:57;54647.84;;;-144.73;100.00
73551;BME280;61816;53.582;10.096;2023-02-19T05:24:22;54608.84;;;-144.73;100.00
73551;BME280;61816;53.582;10.096;2023-02-19T05:26:49;54576.00;;;-144.73;100.00
73551;BME280;61816;53.582;10.096;2023-02-19T05:29:14;54639.63;;;-144.73;100.00
73551;BME280;61816;53.582;10.096;2023-02-19T05:31:40;54633.47;;;-144.73;100.00
73551;BME280;61816;53.582;10.096;2023-02-19T05:34:05;54637.59;;;-144.73;100.00
73551;BME280;61816;53.582;10.096;2023-02-19T05:36:31;54621.16;;;-144.73;100.00
73551;BME280;61816;53.582;10.096;2023-02-19T05:38:57;54588.31;;;-144.73;100.00
73551;BME280;61816;53.582;10.096;2023-02-19T05:41:25;54645.78;;;-144.73;100.00
73551;BME280;61816;53.582;10.096;2023-02-19T05:43:50;54629.38;;;-144.73;100.00
73551;BME280;61816;53.582;10.096;2023-02-19T05:46:18;54651.97;;;-144.73;100.00
73551;BME280;61816;53.582;10.096;2023-02-19T05:48:45;54641.69;;;-144.73;100.00
73551;BME280;61816;53.582;10.096;2023-02-19T05:51:13;54571.91;;;-144.73;100.00
73551;BME280;61816;53.582;10.096;2023-02-19T05:53:40;54625.28;;;-144.73;100.00
73551;BME280;61816;53.582;10.096;2023-02-19T05:58:50;54645.78;;;-144.73;100.00
73551;BME280;61816;53.582;10.096;2023-02-19T06:01:16;54641.69;;;-144.73;100.00
73551;BME280;61816;53.582;10.096;2023-02-19T06:03:42;54612.97;;;-144.73;100.00
73551;BME280;61816;53.582;10.096;2023-02-19T06:06:11;54654.00;;;-144.73;100.00
73551;BME280;61816;53.582;10.096;2023-02-19T06:08:37;54625.28;;;-144.73;100.00
73551;BME280;61816;53.582;10.096;2023-02-19T06:11:02;54654.00;;;-144.73;100.00
73551;BME280;61816;53.582;10.096;2023-02-19T06:13:28;54651.97;;;-144.73;100.00
73551;BME280;61816;53.582;10.096;2023-02-19T06:15:53;54625.28;;;-144.73;100.00
73551;BME280;61816;53.582;10.096;2023-02-19T06:18:18;54658.13;;;-144.73;100.00
73551;BME280;61816;53.582;10.096;2023-02-19T06:20:44;54625.28;;;-144.73;100.00
73551;BME280;61816;53.582;10.096;2023-02-19T06:23:09;54619.13;;;-144.73;100.00
73551;BME280;61816;53.582;10.096;2023-02-19T06:25:34;54600.63;;;-144.73;100.00
73551;BME280;61816;53.582;10.096;2023-02-19T06:28:00;54633.47;;;-144.73;100.00
73551;BME280;61816;53.582;10.096;2023-02-19T06:30:25;54654.00;;;-144.73;100.00
73551;BME280;61816;53.582;10.096;2023-02-19T06:32:51;54654.00;;;-144.73;100.00
73551;BME280;61816;53.582;10.096;2023-02-19T06:35:17;54621.16;;;-144.73;100.00
73551;BME280;61816;53.582;10.096;2023-02-19T06:37:45;54596.53;;;-144.73;100.00
73551;BME280;61816;53.582;10.096;2023-02-19T06:40:11;54619.13;;;-144.73;100.00
73551;BME280;61816;53.582;10.096;2023-02-19T06:42:36;54649.91;;;-144.73;100.00
73551;BME280;61816;53.582;10.096;2023-02-19T06:45:02;54686.84;;;-144.73;100.00
73551;BME280;61816;53.582;10.096;2023-02-19T06:47:31;54617.06;;;-144.73;100.00
73551;BME280;61816;53.582;10.096;2023-02-19T06:49:57;54625.28;;;-144.73;100.00
73551;BME280;61816;53.582;10.096;2023-02-19T06:52:22;54625.28;;;-144.73;100.00
73551;BME280;61816;53.582;10.096;2023-02-19T06:54:47;54615.00;;;-144.73;100.00
73551;BME280;61816;53.582;10.096;2023-02-19T06:57:13;54608.84;;;-144.73;100.00
73551;BME280;61816;53.582;10.096;2023-02-19T06:59:41;54625.28;;;-144.73;100.00
73551;BME280;61816;53.582;10.096;2023-02-19T07:02:10;54621.16;;;-144.73;100.00
73551;BME280;61816;53.582;10.096;2023-02-19T07:04:35;54608.84;;;-144.73;100.00
73551;BME280;61816;53.582;10.096;2023-02-19T07:07:00;54633.47;;;-144.73;100.00
73551;BME280;61816;53.582;10.096;2023-02-19T07:09:26;54641.69;;;-144.73;100.00
73551;BME280;61816;53.582;10.096;2023-02-19T07:11:52;54633.47;;;-144.73;100.00
73551;BME280;61816;53.582;10.096;2023-02-19T07:14:18;54604.75;;;-144.73;100.00
73551;BME280;61816;53.582;10.096;2023-02-19T07:16:45;54621.16;;;-144.73;100.00
73551;BME280;61816;53.582;10.096;2023-02-19T07:19:12;54637.59;;;-144.73;100.00
73551;BME280;61816;53.582;10.096;2023-02-19T07:21:39;54658.13;;;-144.73;100.00
73551;BME280;61816;53.582;10.096;2023-02-19T07:24:05;54670.44;;;-144.73;100.00
73551;BME280;61816;53.582;10.096;2023-02-19T07:26:31;54654.00;;;-144.73;100.00
73551;BME280;61816;53.582;10.096;2023-02-19T07:28:56;54625.28;;;-144.73;100.00
73551;BME280;61816;53.582;10.096;2023-02-19T07:31:22;54670.44;;;-144.73;100.00
73551;BME280;61816;53.582;10.096;2023-02-19T07:33:48;54641.69;;;-144.73;100.00
73551;BME280;61816;53.582;10.096;2023-02-19T07:36:15;54686.84;;;-144.73;100.00
73551;BME280;61816;53.582;10.096;2023-02-19T07:38:41;54610.91;;;-144.73;100.00
73551;BME280;61816;53.582;10.096;2023-02-19T07:41:07;54617.06;;;-144.73;100.00
73551;BME280;61816;53.582;10.096;2023-02-19T07:43:34;54612.97;;;-144.73;100.00
73551;BME280;61816;53.582;10.096;2023-02-19T07:46:11;54637.59;;;-144.73;100.00
73551;BME280;61816;53.582;10.096;2023-02-19T07:48:38;54621.16;;;-144.73;100.00
73551;BME280;61816;53.582;10.096;2023-02-19T07:51:10;54629.38;;;-144.73;100.00
73551;BME280;61816;53.582;10.096;2023-02-19T07:53:35;54629.38;;;-144.73;100.00
73551;BME280;61816;53.582;10.096;2023-02-19T07:56:06;54658.13;;;-144.73;100.00
73551;BME280;61816;53.582;10.096;2023-02-19T07:58:32;54670.44;;;-144.73;100.00
73551;BME280;61816;53.582;10.096;2023-02-19T08:01:09;54629.38;;;-144.73;100.00
73551;BME280;61816;53.582;10.096;2023-02-19T08:03:36;54635.53;;;-144.73;100.00
73551;BME280;61816;53.582;10.096;2023-02-19T08:06:02;54674.53;;;-144.73;100.00
73551;BME280;61816;53.582;10.096;2023-02-19T08:08:27;54596.53;;;-144.73;100.00
73551;BME280;61816;53.582;10.096;2023-02-19T08:10:53;54670.44;;;-144.73;100.00
73551;BME280;61816;53.582;10.096;2023-02-19T08:13:37;54625.28;;;-144.73;100.00
73551;BME280;61816;53.582;10.096;2023-02-19T08:18:31;54608.84;;;-144.73;100.00
73551;BME280;61816;53.582;10.096;2023-02-19T08:20:57;54604.75;;;-144.73;100.00
73551;BME280;61816;53.582;10.096;2023-02-19T08:23:23;54629.38;;;-144.73;100.00
73551;BME280;61816;53.582;10.096;2023-02-19T08:25:50;54612.97;;;-144.73;100.00
73551;BME280;61816;53.582;10.096;2023-02-19T08:28:17;54654.00;;;-144.73;100.00
73551;BME280;61816;53.582;10.096;2023-02-19T08:30:44;54645.78;;;-144.73;100.00
73551;BME280;61816;53.582;10.096;2023-02-19T08:33:13;54598.59;;;-144.73;100.00
73551;BME280;61816;53.582;10.096;2023-02-19T08:35:38;54633.47;;;-144.73;100.00
73551;BME280;61816;53.582;10.096;2023-02-19T08:38:05;54670.44;;;-144.73;100.00
73551;BME280;61816;53.582;10.096;2023-02-19T08:40:32;54617.06;;;-144.73;100.00
73551;BME280;61816;53.582;10.096;2023-02-19T08:43:09;54645.78;;;-144.73;100.00
73551;BME280;61816;53.582;10.096;2023-02-19T08:45:36;54633.47;;;-144.73;100.00
73551;BME280;61816;53.582;10.096;2023-02-19T08:48:01;54633.47;;;-144.73;100.00
73551;BME280;61816;53.582;10.096;2023-02-19T08:50:26;54617.06;;;-144.73;100.00
73551;BME280;61816;53.582;10.096;2023-02-19T08:52:52;54670.44;;;-144.73;100.00
73551;BME280;61816;53.582;10.096;2023-02-19T08:55:17;54641.69;;;-144.73;100.00
73551;BME280;61816;53.582;10.096;2023-02-19T08:57:43;54621.16;;;-144.73;100.00
73551;BME280;61816;53.582;10.096;2023-02-19T09:00:09;54604.75;;;-144.73;100.00
73551;BME280;61816;53.582;10.096;2023-02-19T09:02:35;54617.06;;;-144.73;100.00
73551;BME280;61816;53.582;10.096;2023-02-19T09:05:01;54612.97;;;-144.73;100.00
73551;BME280;61816;53.582;10.096;2023-02-19T09:07:26;54629.38;;;-144.73;99.25
73551;BME280;61816;53.582;10.096;2023-02-19T09:09:52;54621.16;;;-144.73;99.30
73551;BME280;61816;53.582;10.096;2023-02-19T09:12:18;54629.38;;;-144.73;99.58
73551;BME280;61816;53.582;10.096;2023-02-19T09:14:43;54649.91;;;-144.73;99.11
73551;BME280;61816;53.582;10.096;2023-02-19T09:17:09;54678.63;;;-144.73;98.54
73551;BME280;61816;53.582;10.096;2023-02-19T09:19:34;54643.75;;;-144.73;96.68
73551;BME280;61816;53.582;10.096;2023-02-19T09:22:00;54592.44;;;-144.73;98.19
73551;BME280;61816;53.582;10.096;2023-02-19T09:24:26;54637.59;;;-144.73;98.34
73551;BME280;61816;53.582;10.096;2023-02-19T09:26:52;54625.28;;;-144.73;96.66
73551;BME280;61816;53.582;10.096;2023-02-19T09:29:18;54584.22;;;-144.73;96.78
73551;BME280;61816;53.582;10.096;2023-02-19T09:31:44;54629.38;;;-144.73;95.67
73551;BME280;61816;53.582;10.096;2023-02-19T09:34:09;54654.00;;;-144.73;97.62
73551;BME280;61816;53.582;10.096;2023-02-19T09:36:36;54592.44;;;-144.73;95.75
73551;BME280;61816;53.582;10.096;2023-02-19T09:39:03;54670.44;;;-144.73;96.42
73551;BME280;61816;53.582;10.096;2023-02-19T09:41:41;54672.47;;;-144.73;95.55
73551;BME280;61816;53.582;10.096;2023-02-19T09:44:11;54637.59;;;-144.73;94.50
73551;BME280;61816;53.582;10.096;2023-02-19T09:46:42;54641.69;;;-144.73;94.91
73551;BME280;61816;53.582;10.096;2023-02-19T09:51:58;54596.53;;;-144.73;93.41
73551;BME280;61816;53.582;10.096;2023-02-19T09:54:28;54662.22;;;-144.73;92.22
73551;BME280;61816;53.582;10.096;2023-02-19T09:56:55;54662.22;;;-144.73;92.69
73551;BME280;61816;53.582;10.096;2023-02-19T09:59:25;54654.00;;;-144.73;91.80
73551;BME280;61816;53.582;10.096;2023-02-19T10:01:56;54633.47;;;-144.73;91.12
73551;BME280;61816;53.582;10.096;2023-02-19T10:04:26;54621.16;;;-144.73;89.90
73551;BME280;61816;53.582;10.096;2023-02-19T10:06:52;54617.06;;;-144.73;89.04
73551;BME280;61816;53.582;10.096;2023-02-19T10:09:25;54629.38;;;-144.73;90.05
73551;BME280;61816;53.582;10.096;2023-02-19T10:11:53;54654.00;;;-144.73;87.34
73551;BME280;61816;53.582;10.096;2023-02-19T10:14:35;54645.78;;;-144.73;86.61
73551;BME280;61816;53.582;10.096;2023-02-19T10:17:03;54654.00;;;-144.73;86.93
73551;BME280;61816;53.582;10.096;2023-02-19T10:19:30;54629.38;;;-144.73;86.58
73551;BME280;61816;53.582;10.096;2023-02-19T10:21:56;54639.63;;;-144.73;85.10
73551;BME280;61816;53.582;10.096;2023-02-19T10:24:24;54631.44;;;-144.73;85.10
73551;BME280;61816;53.582;10.096;2023-02-19T10:26:51;54641.69;;;-144.73;84.31
73551;BME280;61816;53.582;10.096;2023-02-19T10:29:17;54617.06;;;-144.73;83.25
73551;BME280;61816;53.582;10.096;2023-02-19T10:31:44;54637.59;;;-144.73;83.28
73551;BME280;61816;53.582;10.096;2023-02-19T10:34:17;54604.75;;;-144.73;82.29
73551;BME280;61816;53.582;10.096;2023-02-19T10:36:46;54658.13;;;-144.73;81.80
73551;BME280;61816;53.582;10.096;2023-02-19T10:41:48;54633.47;;;-144.73;78.37
73551;BME280;61816;53.582;10.096;2023-02-19T10:44:21;54600.63;;;-144.73;77.98
73551;BME280;61816;53.582;10.096;2023-02-19T10:46:51;54637.59;;;-144.73;76.61
73551;BME280;61816;53.582;10.096;2023-02-19T10:49:31;54641.69;;;-144.73;77.11
73551;BME280;61816;53.582;10.096;2023-02-19T10:52:21;54598.59;;;-144.73;75.28
73551;BME280;61816;53.582;10.096;2023-02-19T10:54:54;54625.28;;;-144.73;75.06
73551;BME280;61816;53.582;10.096;2023-02-19T10:57:26;54584.22;;;-144.73;73.19
73551;BME280;61816;53.582;10.096;2023-02-19T11:00:39;54567.81;;;-144.73;72.29
73551;BME280;61816;53.582;10.096;2023-02-19T11:02:47;54637.59;;;-144.73;71.90
73551;BME280;61816;53.582;10.096;2023-02-19T11:05:18;54629.38;;;-144.73;69.82
73551;BME280;61816;53.582;10.096;2023-02-19T11:07:49;54658.13;;;-144.73;71.41
73551;BME280;61816;53.582;10.096;2023-02-19T11:12:53;54672.47;;;-144.73;71.25
73551;BME280;61816;53.582;10.096;2023-02-19T11:15:24;54612.97;;;-144.73;69.19
73551;BME280;61816;53.582;10.096;2023-02-19T11:17:55;54635.53;;;-144.73;68.48
73551;BME280;61816;53.582;10.096;2023-02-19T11:20:21;54639.63;;;-144.73;69.35
73551;BME280;61816;53.582;10.096;2023-02-19T11:22:46;54633.47;;;-144.73;67.87
73551;BME280;61816;53.582;10.096;2023-02-19T11:28:03;54623.22;;;-144.73;66.76
73551;BME280;61816;53.582;10.096;2023-02-19T11:30:42;54645.78;;;-144.73;66.91
73551;BME280;61816;53.582;10.096;2023-02-19T11:35:44;54633.47;;;-144.73;65.41
73551;BME280;61816;53.582;10.096;2023-02-19T11:38:12;54602.69;;;-144.73;65.89
73551;BME280;61816;53.582;10.096;2023-02-19T11:43:46;54625.28;;;-144.73;66.57
73551;BME280;61816;53.582;10.096;2023-02-19T11:49:16;54604.75;;;-144.73;66.49
73551;BME280;61816;53.582;10.096;2023-02-19T11:52:05;54645.78;;;-144.73;65.54
73551;BME280;61816;53.582;10.096;2023-02-19T11:54:54;54629.38;;;-144.73;65.49
73551;BME280;61816;53.582;10.096;2023-02-19T12:00:28;54592.44;;;-144.73;66.30
73551;BME280;61816;53.582;10.096;2023-02-19T12:06:14;54543.16;;;-144.73;65.32
73551;BME280;61816;53.582;10.096;2023-02-19T12:11:40;54584.22;;;-144.73;63.76
73551;BME280;61816;53.582;10.096;2023-02-19T12:14:36;54569.84;;;-144.73;63.08
73551;BME280;61816;53.582;10.096;2023-02-19T12:17:16;54623.22;;;-144.73;62.85
73551;BME280;61816;53.582;10.096;2023-02-19T12:20:00;54567.81;;;-144.73;61.81
73551;BME280;61816;53.582;10.096;2023-02-19T12:22:39;54604.75;;;-144.73;61.88
73551;BME280;61816;53.582;10.096;2023-02-19T12:25:23;54625.28;;;-144.73;64.57
73551;BME280;61816;53.582;10.096;2023-02-19T12:27:54;54604.75;;;-144.73;66.22
73551;BME280;61816;53.582;10.096;2023-02-19T12:30:35;54617.06;;;-144.73;64.57
73551;BME280;61816;53.582;10.096;2023-02-19T12:38:35;54621.16;;;-144.73;62.91
73551;BME280;61816;53.582;10.096;2023-02-19T12:43:52;54580.13;;;-144.73;64.76
73551;BME280;61816;53.582;10.096;2023-02-19T12:46:24;54596.53;;;-144.73;66.68
73551;BME280;61816;53.582;10.096;2023-02-19T12:48:57;54596.53;;;-144.73;66.19
73551;BME280;61816;53.582;10.096;2023-02-19T12:51:35;54608.84;;;-144.73;65.50
73551;BME280;61816;53.582;10.096;2023-02-19T12:54:11;54594.47;;;-144.73;64.00
73551;BME280;61816;53.582;10.096;2023-02-19T12:56:53;54600.63;;;-144.73;63.88
73551;BME280;61816;53.582;10.096;2023-02-19T12:59:30;54580.13;;;-144.73;63.00
73551;BME280;61816;53.582;10.096;2023-02-19T13:02:12;54658.13;;;-144.73;61.78
73551;BME280;61816;53.582;10.096;2023-02-19T13:04:45;54580.13;;;-144.73;62.04
73551;BME280;61816;53.582;10.096;2023-02-19T13:07:34;54654.00;;;-144.73;63.44
73551;BME280;61816;53.582;10.096;2023-02-19T13:12:41;54612.97;;;-144.73;63.49
73551;BME280;61816;53.582;10.096;2023-02-19T13:15:17;54559.59;;;-144.73;64.65
73551;BME280;61816;53.582;10.096;2023-02-19T13:17:49;54567.81;;;-144.73;63.99
73551;BME280;61816;53.582;10.096;2023-02-19T13:20:27;54621.16;;;-144.73;65.07
73551;BME280;61816;53.582;10.096;2023-02-19T13:23:10;54621.16;;;-144.73;63.92
73551;BME280;61816;53.582;10.096;2023-02-19T13:29:01;54592.44;;;-144.73;67.80
73551;BME280;61816;53.582;10.096;2023-02-19T13:34:19;54580.13;;;-144.73;68.15
73551;BME280;61816;53.582;10.096;2023-02-19T13:36:49;54584.22;;;-144.73;68.01
73551;BME280;61816;53.582;10.096;2023-02-19T13:39:16;54580.13;;;-144.73;67.07
73551;BME280;61816;53.582;10.096;2023-02-19T13:41:52;54608.84;;;-144.73;67.19
73551;BME280;61816;53.582;10.096;2023-02-19T13:44:24;54608.84;;;-144.73;67.21
73551;BME280;61816;53.582;10.096;2023-02-19T13:46:50;54621.16;;;-144.73;67.91
73551;BME280;61816;53.582;10.096;2023-02-19T13:51:49;54617.06;;;-144.73;69.57
73551;BME280;61816;53.582;10.096;2023-02-19T13:54:24;54555.47;;;-144.73;67.24